sensor_id;sensor_type;location;lat;lon;timestamp;pressure;altitude;pressure_sealevel;temperature;humidity
43119;BME280;28729;49.838;8.650;2023-02-04T00:01:45;101127.47;;;8.98;100.00
43119;BME280;28729;49.838;8.650;2023-02-04T00:05:47;101113.28;;;8.95;100.00
43119;BME280;28729;49.838;8.650;2023-02-04T00:09:49;101128.53;;;8.97;97.74
43119;BME280;28729;49.838;8.650;2023-02-04T00:13:50;101135.53;;;9.00;99.45
43119;BME280;28729;49.838;8.650;2023-02-04T00:17:52;101138.69;;;8.97;99.70
43119;BME280;28729;49.838;8.650;2023-02-04T00:21:53;101140.19;;;8.99;90.15
43119;BME280;28729;49.838;8.650;2023-02-04T00:25:55;101144.63;;;9.00;89.70
43119;BME280;28729;49.838;8.650;2023-02-04T00:29:57;101142.09;;;9.05;87.04
43119;BME280;28729;49.838;8.650;2023-02-04T00:33:58;101138.09;;;9.08;86.36
43119;BME280;28729;49.838;8.650;2023-02-04T00:38:00;101137.22;;;9.01;88.19
43119;BME280;28729;49.838;8.650;2023-02-04T00:42:01;101148.19;;;8.94;88.42
43119;BME280;28729;49.838;8.650;2023-02-04T00:46:03;101155.59;;;9.00;88.84
43119;BME280;28729;49.838;8.650;2023-02-04T00:50:05;101156.91;;;9.04;87.07
43119;BME280;28729;49.838;8.650;2023-02-04T00:54:07;101162.59;;;8.96;87.98
43119;BME280;28729;49.838;8.650;2023-02-04T00:58:09;101158.59;;;8.99;88.15
43119;BME280;28729;49.838;8.650;2023-02-04T01:02:11;101157.31;;;9.01;87.00
43119;BME280;28729;49.838;8.650;2023-02-04T01:06:13;101165.56;;;9.01;87.18
43119;BME280;28729;49.838;8.650;2023-02-04T01:10:14;101171.69;;;8.97;88.67
43119;BME280;28729;49.838;8.650;2023-02-04T01:14:18;101175.69;;;8.94;87.45
43119;BME280;28729;49.838;8.650;2023-02-04T01:18:19;101179.09;;;8.96;84.68
43119;BME280;28729;49.838;8.650;2023-02-04T01:22:21;101176.50;;;8.88;87.16
43119;BME280;28729;49.838;8.650;2023-02-04T01:26:23;101189.00;;;8.90;86.93
43119;BME280;28729;49.838;8.650;2023-02-04T01:30:24;101197.84;;;8.86;88.31
43119;BME280;28729;49.838;8.650;2023-02-04T01:34:26;101196.81;;;8.87;88.79
43119;BME280;28729;49.838;8.650;2023-02-04T01:38:28;101204.00;;;8.88;89.22
43119;BME280;28729;49.838;8.650;2023-02-04T01:42:30;101213.06;;;8.82;90.13
43119;BME280;28729;49.838;8.650;2023-02-04T01:46:32;101211.53;;;8.73;89.15
43119;BME280;28729;49.838;8.650;2023-02-04T01:50:36;101228.88;;;8.73;88.06
43119;BME280;28729;49.838;8.650;2023-02-04T01:54:38;101202.38;;;8.65;85.70
43119;BME280;28729;49.838;8.650;2023-02-04T01:58:39;101202.44;;;8.72;85.57
43119;BME280;28729;49.838;8.650;2023-02-04T02:02:44;101204.94;;;8.67;86.36
43119;BME280;28729;49.838;8.650;2023-02-04T02:06:51;101215.06;;;8.60;87.26
43119;BME280;28729;49.838;8.650;2023-02-04T02:10:54;101204.94;;;8.60;87.00
43119;BME280;28729;49.838;8.650;2023-02-04T02:14:56;101210.19;;;8.62;87.16
43119;BME280;28729;49.838;8.650;2023-02-04T02:18:59;101202.75;;;8.49;88.93
43119;BME280;28729;49.838;8.650;2023-02-04T02:27:40;101216.63;;;8.41;89.20
43119;BME280;28729;49.838;8.650;2023-02-04T02:31:42;101225.63;;;8.35;88.55
43119;BME280;28729;49.838;8.650;2023-02-04T02:35:45;101221.22;;;8.34;87.45
43119;BME280;28729;49.838;8.650;2023-02-04T02:39:48;101209.31;;;8.27;88.98
43119;BME280;28729;49.838;8.650;2023-02-04T02:43:50;101211.84;;;8.21;86.70
43119;BME280;28729;49.838;8.650;2023-02-04T02:47:52;101209.72;;;8.23;87.55
43119;BME280;28729;49.838;8.650;2023-02-04T02:51:54;101215.47;;;8.29;84.91
43119;BME280;28729;49.838;8.650;2023-02-04T02:55:56;101215.88;;;8.26;86.32
43119;BME280;28729;49.838;8.650;2023-02-04T02:59:59;101216.00;;;8.17;86.60
43119;BME280;28729;49.838;8.650;2023-02-04T03:04:00;101217.91;;;8.17;87.24
43119;BME280;28729;49.838;8.650;2023-02-04T03:08:04;101232.03;;;8.14;87.41
43119;BME280;28729;49.838;8.650;2023-02-04T03:12:06;101241.50;;;8.11;86.74
43119;BME280;28729;49.838;8.650;2023-02-04T03:16:09;101256.31;;;8.10;87.67
43119;BME280;28729;49.838;8.650;2023-02-04T03:20:12;101264.53;;;8.10;86.37
43119;BME280;28729;49.838;8.650;2023-02-04T03:24:15;101272.31;;;8.07;87.49
43119;BME280;28729;49.838;8.650;2023-02-04T03:28:17;101276.31;;;8.04;88.47
43119;BME280;28729;49.838;8.650;2023-02-04T03:32:19;101276.31;;;8.04;87.65
43119;BME280;28729;49.838;8.650;2023-02-04T03:36:21;101281.94;;;7.96;86.93
43119;BME280;28729;49.838;8.650;2023-02-04T03:40:22;101280.63;;;7.92;85.68
43119;BME280;28729;49.838;8.650;2023-02-04T03:44:24;101271.16;;;7.94;85.01
43119;BME280;28729;49.838;8.650;2023-02-04T03:48:27;101286.91;;;7.86;84.63
43119;BME280;28729;49.838;8.650;2023-02-04T03:52:28;101285.47;;;7.90;83.77
43119;BME280;28729;49.838;8.650;2023-02-04T03:56:30;101285.84;;;7.87;84.42
43119;BME280;28729;49.838;8.650;2023-02-04T04:00:31;101298.91;;;7.85;84.77
43119;BME280;28729;49.838;8.650;2023-02-04T04:04:34;101303.09;;;7.81;85.56
43119;BME280;28729;49.838;8.650;2023-02-04T04:08:36;101306.81;;;7.73;86.30
43119;BME280;28729;49.838;8.650;2023-02-04T04:12:38;101319.06;;;7.70;86.97
43119;BME280;28729;49.838;8.650;2023-02-04T04:16:40;101319.22;;;7.69;87.20
43119;BME280;28729;49.838;8.650;2023-02-04T04:20:41;101322.38;;;7.66;87.77
43119;BME280;28729;49.838;8.650;2023-02-04T04:24:43;101321.91;;;7.62;87.84
43119;BME280;28729;49.838;8.650;2023-02-04T04:28:44;101345.94;;;7.60;87.75
43119;BME280;28729;49.838;8.650;2023-02-04T04:32:46;101350.75;;;7.58;87.74
43119;BME280;28729;49.838;8.650;2023-02-04T04:36:48;101352.41;;;7.52;88.04
43119;BME280;28729;49.838;8.650;2023-02-04T04:40:49;101350.50;;;7.53;88.21
43119;BME280;28729;49.838;8.650;2023-02-04T04:44:51;101347.28;;;7.49;87.95
43119;BME280;28729;49.838;8.650;2023-02-04T04:48:53;101347.66;;;7.46;88.10
43119;BME280;28729;49.838;8.650;2023-02-04T04:52:54;101338.59;;;7.46;87.56
43119;BME280;28729;49.838;8.650;2023-02-04T04:56:56;101337.28;;;7.42;88.32
43119;BME280;28729;49.838;8.650;2023-02-04T05:00:57;101328.59;;;7.38;88.69
43119;BME280;28729;49.838;8.650;2023-02-04T05:04:59;101333.22;;;7.38;88.93
43119;BME280;28729;49.838;8.650;2023-02-04T05:09:01;101330.19;;;7.33;89.11
43119;BME280;28729;49.838;8.650;2023-02-04T05:13:02;101345.97;;;7.30;89.45
43119;BME280;28729;49.838;8.650;2023-02-04T05:17:04;101340.03;;;7.27;90.03
43119;BME280;28729;49.838;8.650;2023-02-04T05:21:06;101345.06;;;7.23;90.63
43119;BME280;28729;49.838;8.650;2023-02-04T05:29:38;101365.94;;;7.10;92.27
43119;BME280;28729;49.838;8.650;2023-02-04T05:33:40;101385.22;;;7.01;93.21
43119;BME280;28729;49.838;8.650;2023-02-04T05:37:41;101379.63;;;6.95;94.45
43119;BME280;28729;49.838;8.650;2023-02-04T05:41:43;101381.25;;;6.89;95.07
43119;BME280;28729;49.838;8.650;2023-02-04T05:45:44;101370.19;;;6.82;95.71
43119;BME280;28729;49.838;8.650;2023-02-04T05:49:46;101378.41;;;6.82;95.87
43119;BME280;28729;49.838;8.650;2023-02-04T05:53:48;101384.44;;;6.78;96.25
43119;BME280;28729;49.838;8.650;2023-02-04T05:57:50;101387.38;;;6.76;96.50
43119;BME280;28729;49.838;8.650;2023-02-04T06:01:51;101391.16;;;6.75;96.63
43119;BME280;28729;49.838;8.650;2023-02-04T06:05:53;101390.28;;;6.75;96.91
43119;BME280;28729;49.838;8.650;2023-02-04T06:09:54;101394.91;;;6.74;97.36
43119;BME280;28729;49.838;8.650;2023-02-04T06:13:56;101408.72;;;6.81;96.20
43119;BME280;28729;49.838;8.650;2023-02-04T06:17:58;101419.13;;;6.85;95.90
43119;BME280;28729;49.838;8.650;2023-02-04T06:21:59;101418.75;;;6.89;96.52
43119;BME280;28729;49.838;8.650;2023-02-04T06:26:01;101414.13;;;6.89;96.10
43119;BME280;28729;49.838;8.650;2023-02-04T06:30:03;101430.41;;;6.91;96.02
43119;BME280;28729;49.838;8.650;2023-02-04T06:34:05;101433.13;;;6.91;96.02
43119;BME280;28729;49.838;8.650;2023-02-04T06:38:07;101425.56;;;6.93;96.11
43119;BME280;28729;49.838;8.650;2023-02-04T06:42:09;101428.59;;;6.98;95.32
43119;BME280;28729;49.838;8.650;2023-02-04T06:46:10;101420.56;;;6.96;95.61
43119;BME280;28729;49.838;8.650;2023-02-04T06:50:12;101432.00;;;7.00;95.65
43119;BME280;28729;49.838;8.650;2023-02-04T06:54:19;101437.97;;;7.03;95.69
43119;BME280;28729;49.838;8.650;2023-02-04T06:58:20;101422.19;;;7.05;95.53
43119;BME280;28729;49.838;8.650;2023-02-04T07:02:22;101442.22;;;7.06;95.53
43119;BME280;28729;49.838;8.650;2023-02-04T07:06:25;101444.75;;;7.07;96.48
43119;BME280;28729;49.838;8.650;2023-02-04T07:10:26;101450.38;;;7.14;96.60
43119;BME280;28729;49.838;8.650;2023-02-04T07:14:28;101463.72;;;7.17;97.25
43119;BME280;28729;49.838;8.650;2023-02-04T07:18:29;101472.41;;;7.21;98.27
43119;BME280;28729;49.838;8.650;2023-02-04T07:22:31;101488.28;;;7.25;98.42
43119;BME280;28729;49.838;8.650;2023-02-04T07:26:32;101490.63;;;7.28;97.74
43119;BME280;28729;49.838;8.650;2023-02-04T07:30:34;101500.38;;;7.31;97.01
43119;BME280;28729;49.838;8.650;2023-02-04T07:34:37;101499.38;;;7.32;96.64
43119;BME280;28729;49.838;8.650;2023-02-04T07:38:39;101510.13;;;7.34;96.15
43119;BME280;28729;49.838;8.650;2023-02-04T07:42:41;101507.59;;;7.32;96.56
43119;BME280;28729;49.838;8.650;2023-02-04T07:46:49;101505.50;;;7.34;96.45
43119;BME280;28729;49.838;8.650;2023-02-04T07:50:50;101511.97;;;7.41;96.72
43119;BME280;28729;49.838;8.650;2023-02-04T07:54:52;101526.69;;;7.55;97.21
43119;BME280;28729;49.838;8.650;2023-02-04T07:58:53;101523.78;;;7.71;97.57
43119;BME280;28729;49.838;8.650;2023-02-04T08:02:55;101534.19;;;7.91;97.87
43119;BME280;28729;49.838;8.650;2023-02-04T08:06:57;101543.53;;;8.11;97.22
43119;BME280;28729;49.838;8.650;2023-02-04T08:10:58;101538.69;;;8.28;96.31
43119;BME280;28729;49.838;8.650;2023-02-04T08:15:00;101543.13;;;8.44;93.88
43119;BME280;28729;49.838;8.650;2023-02-04T08:19:02;101555.53;;;8.55;92.03
43119;BME280;28729;49.838;8.650;2023-02-04T08:23:03;101562.88;;;8.69;91.88
43119;BME280;28729;49.838;8.650;2023-02-04T08:27:05;101562.94;;;8.76;90.32
43119;BME280;28729;49.838;8.650;2023-02-04T08:31:06;101567.53;;;8.90;90.16
43119;BME280;28729;49.838;8.650;2023-02-04T08:35:12;101562.75;;;8.99;88.50
43119;BME280;28729;49.838;8.650;2023-02-04T08:39:14;101576.97;;;9.02;87.22
43119;BME280;28729;49.838;8.650;2023-02-04T08:43:15;101582.63;;;9.01;87.04
43119;BME280;28729;49.838;8.650;2023-02-04T08:47:17;101579.09;;;9.07;85.75
43119;BME280;28729;49.838;8.650;2023-02-04T08:51:18;101585.59;;;9.21;85.10
43119;BME280;28729;49.838;8.650;2023-02-04T08:55:20;101596.31;;;9.37;81.82
43119;BME280;28729;49.838;8.650;2023-02-04T08:59:22;101588.84;;;9.31;82.29
43119;BME280;28729;49.838;8.650;2023-02-04T09:03:24;101599.97;;;9.44;82.37
43119;BME280;28729;49.838;8.650;2023-02-04T09:07:26;101604.94;;;9.55;80.82
43119;BME280;28729;49.838;8.650;2023-02-04T09:11:27;101606.50;;;9.65;79.25
43119;BME280;28729;49.838;8.650;2023-02-04T09:15:29;101620.00;;;9.88;78.42
43119;BME280;28729;49.838;8.650;2023-02-04T09:19:31;101617.88;;;9.90;77.32
43119;BME280;28729;49.838;8.650;2023-02-04T09:23:32;101618.09;;;9.88;78.45
43119;BME280;28729;49.838;8.650;2023-02-04T09:27:37;101609.38;;;9.56;76.42
43119;BME280;28729;49.838;8.650;2023-02-04T09:31:38;101614.19;;;9.48;77.80
43119;BME280;28729;49.838;8.650;2023-02-04T09:35:40;101619.91;;;9.46;76.99
43119;BME280;28729;49.838;8.650;2023-02-04T09:39:42;101622.09;;;9.57;75.98
43119;BME280;28729;49.838;8.650;2023-02-04T09:43:44;101624.84;;;9.57;76.71
43119;BME280;28729;49.838;8.650;2023-02-04T09:47:47;101640.56;;;9.64;77.79
43119;BME280;28729;49.838;8.650;2023-02-04T09:51:49;101634.31;;;9.76;75.30
43119;BME280;28729;49.838;8.650;2023-02-04T09:55:51;101642.66;;;9.90;73.99
43119;BME280;28729;49.838;8.650;2023-02-04T09:59:53;101650.34;;;9.94;73.34
43119;BME280;28729;49.838;8.650;2023-02-04T10:03:59;101653.97;;;10.01;72.35
43119;BME280;28729;49.838;8.650;2023-02-04T10:08:03;101659.22;;;10.24;73.00
43119;BME280;28729;49.838;8.650;2023-02-04T10:12:06;101659.00;;;10.54;73.16
43119;BME280;28729;49.838;8.650;2023-02-04T10:16:17;101669.78;;;10.49;71.33
43119;BME280;28729;49.838;8.650;2023-02-04T10:20:22;101661.75;;;10.54;72.58
43119;BME280;28729;49.838;8.650;2023-02-04T10:24:24;101662.44;;;10.63;72.31
43119;BME280;28729;49.838;8.650;2023-02-04T10:28:36;101670.50;;;10.64;70.45
43119;BME280;28729;49.838;8.650;2023-02-04T10:32:39;101676.19;;;10.56;71.17
43119;BME280;28729;49.838;8.650;2023-02-04T10:36:44;101686.53;;;10.47;70.80
43119;BME280;28729;49.838;8.650;2023-02-04T10:40:46;101689.81;;;10.30;70.30
43119;BME280;28729;49.838;8.650;2023-02-04T10:44:49;101683.59;;;10.21;69.76
43119;BME280;28729;49.838;8.650;2023-02-04T10:48:50;101677.41;;;10.19;70.20
43119;BME280;28729;49.838;8.650;2023-02-04T10:52:59;101675.72;;;10.18;70.25
43119;BME280;28729;49.838;8.650;2023-02-04T10:57:28;101673.69;;;10.26;69.36
43119;BME280;28729;49.838;8.650;2023-02-04T11:01:30;101671.69;;;10.48;67.50
43119;BME280;28729;49.838;8.650;2023-02-04T11:05:34;101666.91;;;10.70;68.42
43119;BME280;28729;49.838;8.650;2023-02-04T11:09:40;101672.66;;;10.69;66.41
43119;BME280;28729;49.838;8.650;2023-02-04T11:18:01;101671.28;;;11.06;65.10
43119;BME280;28729;49.838;8.650;2023-02-04T11:22:21;101682.53;;;11.05;64.82
43119;BME280;28729;49.838;8.650;2023-02-04T11:26:36;101679.09;;;10.96;65.54
43119;BME280;28729;49.838;8.650;2023-02-04T11:30:38;101673.00;;;11.01;66.31
43119;BME280;28729;49.838;8.650;2023-02-04T11:34:45;101681.53;;;11.19;67.06
43119;BME280;28729;49.838;8.650;2023-02-04T11:38:49;101680.88;;;11.17;65.32
43119;BME280;28729;49.838;8.650;2023-02-04T11:42:56;101678.72;;;11.06;65.59
43119;BME280;28729;49.838;8.650;2023-02-04T11:47:06;101687.97;;;10.85;65.79
43119;BME280;28729;49.838;8.650;2023-02-04T11:51:15;101678.97;;;10.63;65.86
43119;BME280;28729;49.838;8.650;2023-02-04T11:55:17;101680.00;;;10.62;64.68
43119;BME280;28729;49.838;8.650;2023-02-04T11:59:19;101680.75;;;10.77;65.16
43119;BME280;28729;49.838;8.650;2023-02-04T12:03:30;101689.63;;;10.79;64.74
43119;BME280;28729;49.838;8.650;2023-02-04T12:07:34;101685.59;;;10.75;65.23
43119;BME280;28729;49.838;8.650;2023-02-04T12:11:36;101683.09;;;10.87;64.21
43119;BME280;28729;49.838;8.650;2023-02-04T12:15:38;101684.78;;;10.81;64.18
43119;BME280;28729;49.838;8.650;2023-02-04T12:19:40;101688.38;;;10.82;64.61
43119;BME280;28729;49.838;8.650;2023-02-04T12:23:41;101693.91;;;10.82;63.97
43119;BME280;28729;49.838;8.650;2023-02-04T12:27:43;101696.59;;;10.68;65.27
43119;BME280;28729;49.838;8.650;2023-02-04T12:31:45;101700.47;;;10.74;65.08
43119;BME280;28729;49.838;8.650;2023-02-04T12:35:47;101688.66;;;11.00;64.59
43119;BME280;28729;49.838;8.650;2023-02-04T12:39:48;101698.56;;;11.49;63.78
43119;BME280;28729;49.838;8.650;2023-02-04T12:43:50;101688.41;;;11.76;62.54
43119;BME280;28729;49.838;8.650;2023-02-04T12:47:52;101695.00;;;11.89;62.54
43119;BME280;28729;49.838;8.650;2023-02-04T12:51:53;101695.22;;;12.00;60.02
43119;BME280;28729;49.838;8.650;2023-02-04T12:55:58;101696.25;;;12.19;61.04
43119;BME280;28729;49.838;8.650;2023-02-04T13:00:00;101691.41;;;12.08;59.85
43119;BME280;28729;49.838;8.650;2023-02-04T13:04:03;101695.84;;;11.69;57.84
43119;BME280;28729;49.838;8.650;2023-02-04T13:08:04;101697.06;;;11.53;59.41
43119;BME280;28729;49.838;8.650;2023-02-04T13:12:06;101696.00;;;11.48;58.48
43119;BME280;28729;49.838;8.650;2023-02-04T13:16:08;101702.75;;;11.25;59.22
43119;BME280;28729;49.838;8.650;2023-02-04T13:20:10;101701.25;;;11.16;58.07
43119;BME280;28729;49.838;8.650;2023-02-04T13:24:12;101698.09;;;11.39;58.61
43119;BME280;28729;49.838;8.650;2023-02-04T13:28:14;101694.59;;;11.92;57.78
43119;BME280;28729;49.838;8.650;2023-02-04T13:32:16;101692.63;;;12.25;56.85
43119;BME280;28729;49.838;8.650;2023-02-04T13:36:17;101692.22;;;12.28;57.26
43119;BME280;28729;49.838;8.650;2023-02-04T13:40:19;101686.94;;;11.94;57.35
43119;BME280;28729;49.838;8.650;2023-02-04T13:44:25;101695.16;;;11.54;59.54
43119;BME280;28729;49.838;8.650;2023-02-04T13:48:26;101697.06;;;11.33;60.09
43119;BME280;28729;49.838;8.650;2023-02-04T13:52:28;101699.94;;;11.12;60.66
43119;BME280;28729;49.838;8.650;2023-02-04T13:56:30;101698.41;;;10.89;61.54
43119;BME280;28729;49.838;8.650;2023-02-04T14:00:33;101699.38;;;10.75;62.52
43119;BME280;28729;49.838;8.650;2023-02-04T14:04:35;101699.09;;;10.57;63.00
43119;BME280;28729;49.838;8.650;2023-02-04T14:08:37;101700.06;;;10.42;63.78
43119;BME280;28729;49.838;8.650;2023-02-04T14:12:39;101701.72;;;10.37;63.46
43119;BME280;28729;49.838;8.650;2023-02-04T14:16:42;101701.81;;;10.22;63.20
43119;BME280;28729;49.838;8.650;2023-02-04T14:20:43;101708.38;;;10.21;63.95
43119;BME280;28729;49.838;8.650;2023-02-04T14:24:45;101706.66;;;10.41;63.13
43119;BME280;28729;49.838;8.650;2023-02-04T14:28:49;101706.25;;;10.44;62.43
43119;BME280;28729;49.838;8.650;2023-02-04T14:32:51;101707.53;;;10.48;61.93
43119;BME280;28729;49.838;8.650;2023-02-04T14:36:53;101707.78;;;10.54;61.96
43119;BME280;28729;49.838;8.650;2023-02-04T14:40:54;101706.72;;;10.55;61.23
43119;BME280;28729;49.838;8.650;2023-02-04T14:44:56;101692.66;;;10.43;61.18
43119;BME280;28729;49.838;8.650;2023-02-04T14:48:57;101697.91;;;10.38;60.91
43119;BME280;28729;49.838;8.650;2023-02-04T14:52:59;101690.69;;;10.37;61.60
43119;BME280;28729;49.838;8.650;2023-02-04T14:57:01;101691.56;;;10.44;61.95
43119;BME280;28729;49.838;8.650;2023-02-04T15:01:02;101700.78;;;10.58;61.14
43119;BME280;28729;49.838;8.650;2023-02-04T15:05:04;101706.97;;;10.66;61.36
43119;BME280;28729;49.838;8.650;2023-02-04T15:09:06;101719.28;;;10.70;61.96
43119;BME280;28729;49.838;8.650;2023-02-04T15:13:08;101716.50;;;10.64;62.07
43119;BME280;28729;49.838;8.650;2023-02-04T15:17:09;101710.97;;;10.57;62.20
43119;BME280;28729;49.838;8.650;2023-02-04T15:21:11;101707.97;;;10.52;63.14
43119;BME280;28729;49.838;8.650;2023-02-04T15:25:13;101711.50;;;10.39;63.25
43119;BME280;28729;49.838;8.650;2023-02-04T15:29:15;101713.50;;;10.24;64.32
43119;BME280;28729;49.838;8.650;2023-02-04T15:33:16;101714.56;;;10.01;64.68
43119;BME280;28729;49.838;8.650;2023-02-04T15:37:18;101719.00;;;9.74;66.11
43119;BME280;28729;49.838;8.650;2023-02-04T15:41:20;101718.34;;;9.51;66.79
43119;BME280;28729;49.838;8.650;2023-02-04T15:45:23;101724.31;;;9.33;67.43
43119;BME280;28729;49.838;8.650;2023-02-04T15:49:25;101725.41;;;9.17;68.16
43119;BME280;28729;49.838;8.650;2023-02-04T15:53:26;101734.25;;;8.98;68.97
43119;BME280;28729;49.838;8.650;2023-02-04T15:57:28;101744.81;;;8.79;69.68
43119;BME280;28729;49.838;8.650;2023-02-04T16:01:29;101739.25;;;8.58;70.33
43119;BME280;28729;49.838;8.650;2023-02-04T16:05:31;101742.22;;;8.33;71.67
43119;BME280;28729;49.838;8.650;2023-02-04T16:09:33;101743.81;;;8.13;72.11
43119;BME280;28729;49.838;8.650;2023-02-04T16:23:37;101766.84;;;7.43;76.34
43119;BME280;28729;49.838;8.650;2023-02-04T16:27:39;101769.63;;;7.35;76.72
43119;BME280;28729;49.838;8.650;2023-02-04T16:31:40;101762.81;;;7.30;76.52
43119;BME280;28729;49.838;8.650;2023-02-04T16:36:18;101777.72;;;7.28;77.82
43119;BME280;28729;49.838;8.650;2023-02-04T16:40:19;101785.28;;;7.26;78.08
43119;BME280;28729;49.838;8.650;2023-02-04T16:44:21;101788.41;;;7.23;78.79
43119;BME280;28729;49.838;8.650;2023-02-04T16:48:23;101792.63;;;7.25;78.71
43119;BME280;28729;49.838;8.650;2023-02-04T16:52:26;101783.91;;;7.30;78.90
43119;BME280;28729;49.838;8.650;2023-02-04T16:56:28;101785.59;;;7.31;79.19
43119;BME280;28729;49.838;8.650;2023-02-04T17:00:36;101785.94;;;7.28;79.24
43119;BME280;28729;49.838;8.650;2023-02-04T17:04:42;101783.28;;;7.20;79.47
43119;BME280;28729;49.838;8.650;2023-02-04T17:08:43;101778.72;;;7.04;80.27
43119;BME280;28729;49.838;8.650;2023-02-04T17:12:45;101793.16;;;6.90;81.23
43119;BME280;28729;49.838;8.650;2023-02-04T17:16:47;101784.66;;;6.76;82.01
43119;BME280;28729;49.838;8.650;2023-02-04T17:20:49;101805.25;;;6.64;83.15
43119;BME280;28729;49.838;8.650;2023-02-04T17:24:51;101804.56;;;6.54;83.96
43119;BME280;28729;49.838;8.650;2023-02-04T17:28:52;101803.22;;;6.42;84.36
43119;BME280;28729;49.838;8.650;2023-02-04T17:32:54;101798.44;;;6.27;85.08
43119;BME280;28729;49.838;8.650;2023-02-04T17:36:56;101798.28;;;6.12;86.21
43119;BME280;28729;49.838;8.650;2023-02-04T17:40:57;101798.66;;;6.01;86.65
43119;BME280;28729;49.838;8.650;2023-02-04T17:45:00;101804.97;;;5.93;87.50
43119;BME280;28729;49.838;8.650;2023-02-04T17:49:01;101803.03;;;5.86;87.63
43119;BME280;28729;49.838;8.650;2023-02-04T17:53:03;101798.44;;;5.78;88.11
43119;BME280;28729;49.838;8.650;2023-02-04T17:57:15;101804.75;;;5.79;89.06
43119;BME280;28729;49.838;8.650;2023-02-04T18:01:18;101816.22;;;5.82;88.54
43119;BME280;28729;49.838;8.650;2023-02-04T18:05:26;101819.16;;;5.89;88.85
43119;BME280;28729;49.838;8.650;2023-02-04T18:09:28;101823.97;;;5.95;89.44
43119;BME280;28729;49.838;8.650;2023-02-04T18:13:32;101825.16;;;6.01;90.13
43119;BME280;28729;49.838;8.650;2023-02-04T18:17:34;101819.53;;;6.02;90.16
43119;BME280;28729;49.838;8.650;2023-02-04T18:21:36;101814.19;;;6.01;90.41
43119;BME280;28729;49.838;8.650;2023-02-04T18:25:39;101813.88;;;5.96;90.57
43119;BME280;28729;49.838;8.650;2023-02-04T18:29:42;101809.91;;;5.90;90.72
43119;BME280;28729;49.838;8.650;2023-02-04T18:33:44;101810.94;;;5.81;91.28
43119;BME280;28729;49.838;8.650;2023-02-04T18:37:48;101814.50;;;5.73;91.68
43119;BME280;28729;49.838;8.650;2023-02-04T18:41:50;101815.88;;;5.69;91.93
43119;BME280;28729;49.838;8.650;2023-02-04T18:45:52;101824.41;;;5.66;91.85
43119;BME280;28729;49.838;8.650;2023-02-04T18:49:54;101815.50;;;5.64;91.88
43119;BME280;28729;49.838;8.650;2023-02-04T18:53:59;101819.09;;;5.64;92.29
43119;BME280;28729;49.838;8.650;2023-02-04T18:58:33;101818.44;;;5.62;92.91
43119;BME280;28729;49.838;8.650;2023-02-04T19:02:37;101817.88;;;5.59;92.62
43119;BME280;28729;49.838;8.650;2023-02-04T19:06:42;101819.63;;;5.60;92.71
43119;BME280;28729;49.838;8.650;2023-02-04T19:10:44;101815.38;;;5.65;92.58
43119;BME280;28729;49.838;8.650;2023-02-04T19:14:46;101811.75;;;5.73;92.38
43119;BME280;28729;49.838;8.650;2023-02-04T19:18:48;101811.94;;;5.80;92.54
43119;BME280;28729;49.838;8.650;2023-02-04T19:22:52;101813.13;;;5.85;92.36
43119;BME280;28729;49.838;8.650;2023-02-04T19:26:59;101817.81;;;5.93;92.36
43119;BME280;28729;49.838;8.650;2023-02-04T19:31:04;101820.38;;;6.03;91.78
43119;BME280;28729;49.838;8.650;2023-02-04T19:35:18;101818.34;;;6.13;91.57
43119;BME280;28729;49.838;8.650;2023-02-04T19:39:34;101816.44;;;6.22;90.71
43119;BME280;28729;49.838;8.650;2023-02-04T19:43:37;101809.25;;;6.29;90.61
43119;BME280;28729;49.838;8.650;2023-02-04T19:47:40;101807.69;;;6.34;90.66
43119;BME280;28729;49.838;8.650;2023-02-04T19:51:44;101811.78;;;6.38;90.26
43119;BME280;28729;49.838;8.650;2023-02-04T19:55:52;101809.75;;;6.41;90.20
43119;BME280;28729;49.838;8.650;2023-02-04T19:59:54;101823.09;;;6.44;90.22
43119;BME280;28729;49.838;8.650;2023-02-04T20:03:56;101823.09;;;6.44;90.39
43119;BME280;28729;49.838;8.650;2023-02-04T20:08:44;101822.59;;;6.40;90.50
43119;BME280;28729;49.838;8.650;2023-02-04T20:17:03;101828.59;;;6.19;91.08
43119;BME280;28729;49.838;8.650;2023-02-04T20:21:11;101835.09;;;6.10;91.41
43119;BME280;28729;49.838;8.650;2023-02-04T20:29:22;101825.50;;;5.98;92.02
43119;BME280;28729;49.838;8.650;2023-02-04T20:37:30;101848.78;;;6.02;91.72
43119;BME280;28729;49.838;8.650;2023-02-04T20:41:34;101848.44;;;6.05;91.71
43119;BME280;28729;49.838;8.650;2023-02-04T20:49:54;101854.94;;;6.20;91.96
43119;BME280;28729;49.838;8.650;2023-02-04T20:53:56;101862.81;;;6.23;91.67
43119;BME280;28729;49.838;8.650;2023-02-04T20:58:17;101866.75;;;6.29;91.09
43119;BME280;28729;49.838;8.650;2023-02-04T21:02:19;101860.72;;;6.33;91.07
43119;BME280;28729;49.838;8.650;2023-02-04T21:06:27;101861.63;;;6.34;90.62
43119;BME280;28729;49.838;8.650;2023-02-04T21:10:30;101872.38;;;6.27;89.94
43119;BME280;28729;49.838;8.650;2023-02-04T21:14:32;101872.22;;;6.21;90.32
43119;BME280;28729;49.838;8.650;2023-02-04T21:18:34;101874.94;;;6.21;91.09
43119;BME280;28729;49.838;8.650;2023-02-04T21:22:35;101880.25;;;6.22;91.42
43119;BME280;28729;49.838;8.650;2023-02-04T21:26:37;101872.06;;;6.22;91.51
43119;BME280;28729;49.838;8.650;2023-02-04T21:30:39;101877.88;;;6.19;91.61
43119;BME280;28729;49.838;8.650;2023-02-04T21:34:40;101874.09;;;6.12;91.90
43119;BME280;28729;49.838;8.650;2023-02-04T21:38:42;101874.41;;;6.01;92.40
43119;BME280;28729;49.838;8.650;2023-02-04T21:42:44;101876.44;;;5.90;93.01
43119;BME280;28729;49.838;8.650;2023-02-04T21:46:46;101874.00;;;5.79;93.61
43119;BME280;28729;49.838;8.650;2023-02-04T21:50:47;101868.00;;;5.67;94.08
43119;BME280;28729;49.838;8.650;2023-02-04T21:54:49;101874.31;;;5.60;94.31
43119;BME280;28729;49.838;8.650;2023-02-04T21:58:50;101876.84;;;5.53;94.83
43119;BME280;28729;49.838;8.650;2023-02-04T22:02:54;101868.63;;;5.45;95.29